createdAt,value
2022-12-19T00:00:31.600Z,5.50
2022-12-19T00:02:59.698Z,8.43
2022-12-19T00:05:27.720Z,6.23
2022-12-19T00:07:55.578Z,4.00
2022-12-19T00:10:24.970Z,9.27
2022-12-19T00:12:52.953Z,5.70
2022-12-19T00:15:22.253Z,5.20
2022-12-19T00:17:50.137Z,4.40
2022-12-19T00:20:18.605Z,5.23
2022-12-19T00:22:46.653Z,8.37
2022-12-19T00:25:14.630Z,8.73
2022-12-19T00:27:44.022Z,7.80
2022-12-19T00:30:13.336Z,6.93
2022-12-19T00:32:43.300Z,3.90
2022-12-19T00:35:11.533Z,6.90
2022-12-19T00:37:41.443Z,5.47
2022-12-19T00:40:16.487Z,7.93
2022-12-19T00:42:48.688Z,8.00
2022-12-19T00:45:19.845Z,5.83
2022-12-19T00:47:49.024Z,5.60
2022-12-19T00:50:17.042Z,6.77
2022-12-19T00:52:45.264Z,7.90
2022-12-19T00:55:19.022Z,9.70
2022-12-19T00:57:48.173Z,6.63
2022-12-19T01:00:18.075Z,7.20
2022-12-19T01:02:46.711Z,7.30
2022-12-19T01:05:16.400Z,5.57
2022-12-19T01:07:44.202Z,8.57
2022-12-19T01:10:12.089Z,5.60
2022-12-19T01:12:48.934Z,8.83
2022-12-19T01:15:18.835Z,10.10
2022-12-19T01:17:46.742Z,5.87
2022-12-19T01:20:19.137Z,4.57
2022-12-19T01:22:57.338Z,6.33
2022-12-19T01:25:27.809Z,4.63
2022-12-19T01:27:55.811Z,10.50
2022-12-19T01:30:23.792Z,7.17
2022-12-19T01:32:52.649Z,4.67
2022-12-19T01:35:22.426Z,5.90
2022-12-19T01:37:51.004Z,5.30
2022-12-19T01:40:19.660Z,10.90
2022-12-19T01:42:48.110Z,8.10
2022-12-19T01:45:34.536Z,5.43
2022-12-19T01:48:16.900Z,4.27
2022-12-19T01:51:01.820Z,9.63
2022-12-19T01:53:34.613Z,5.87
2022-12-19T01:56:09.659Z,5.77
2022-12-19T01:58:41.052Z,6.07
2022-12-19T02:01:09.132Z,6.13
2022-12-19T02:03:39.133Z,6.63
2022-12-19T02:06:10.502Z,6.50
2022-12-19T02:08:39.213Z,7.17
2022-12-19T02:11:07.127Z,7.43
2022-12-19T02:13:35.470Z,7.13
2022-12-19T02:16:13.177Z,5.13
2022-12-19T02:18:49.296Z,3.90
2022-12-19T02:21:36.644Z,10.20
2022-12-19T02:24:51.876Z,6.03
2022-12-19T02:27:38.472Z,9.63
2022-12-19T02:30:11.767Z,6.07
2022-12-19T02:32:49.342Z,4.57
2022-12-19T02:35:26.966Z,4.33
2022-12-19T02:38:06.275Z,7.30
2022-12-19T02:40:43.501Z,3.53
2022-12-19T02:43:13.780Z,5.87
2022-12-19T02:45:43.786Z,8.87
2022-12-19T02:48:18.949Z,7.17
2022-12-19T02:50:50.175Z,4.07
2022-12-19T02:53:23.480Z,7.70
2022-12-19T02:56:05.650Z,6.90
2022-12-19T02:58:51.040Z,6.50
2022-12-19T03:01:32.582Z,6.70
2022-12-19T03:04:11.350Z,4.53
2022-12-19T03:06:49.070Z,6.23
2022-12-19T03:09:24.386Z,9.20
2022-12-19T03:12:03.491Z,6.00
2022-12-19T03:14:32.855Z,9.80
2022-12-19T03:17:05.826Z,5.87
2022-12-19T03:19:36.049Z,5.37
2022-12-19T03:22:04.075Z,7.73
2022-12-19T03:24:32.276Z,8.17
2022-12-19T03:27:04.698Z,7.23
2022-12-19T03:29:35.669Z,8.30
2022-12-19T03:32:07.693Z,7.17
2022-12-19T03:34:45.032Z,5.13
2022-12-19T03:37:18.320Z,7.50
2022-12-19T03:39:49.587Z,5.17
2022-12-19T03:42:37.470Z,5.57
2022-12-19T03:45:07.963Z,5.77
2022-12-19T03:47:39.213Z,7.60
2022-12-19T03:50:10.527Z,7.23
2022-12-19T03:52:46.811Z,9.37
2022-12-19T03:55:19.411Z,5.70
2022-12-19T03:57:53.564Z,7.50
2022-12-19T04:00:22.291Z,6.50
2022-12-19T04:02:52.339Z,5.17
2022-12-19T04:05:24.507Z,9.27
2022-12-19T04:07:57.015Z,3.97
2022-12-19T04:10:27.696Z,5.73
2022-12-19T04:12:59.275Z,8.87
2022-12-19T04:15:37.101Z,10.07
2022-12-19T04:18:08.193Z,7.63
2022-12-19T04:20:40.636Z,3.97
2022-12-19T04:23:14.797Z,6.17
2022-12-19T04:25:46.579Z,6.07
2022-12-19T04:28:19.596Z,6.23
2022-12-19T04:30:49.780Z,11.67
2022-12-19T04:33:17.762Z,7.00
2022-12-19T04:35:47.145Z,5.10
2022-12-19T04:38:15.293Z,6.33
2022-12-19T04:40:43.154Z,6.63
2022-12-19T04:43:11.009Z,6.77
2022-12-19T04:45:39.075Z,10.20
2022-12-19T04:48:08.086Z,9.10
2022-12-19T04:50:37.023Z,11.47
2022-12-19T04:53:07.645Z,10.63
2022-12-19T04:55:35.552Z,11.30
2022-12-19T04:58:05.341Z,16.80
2022-12-19T05:00:34.020Z,23.50
2022-12-19T05:03:02.017Z,17.40
2022-12-19T05:05:30.082Z,15.27
2022-12-19T05:07:58.237Z,16.43
2022-12-19T05:10:27.463Z,18.60
2022-12-19T05:12:55.336Z,15.13
2022-12-19T05:15:23.708Z,15.10
2022-12-19T05:17:51.560Z,13.57
2022-12-19T05:20:19.614Z,13.33
2022-12-19T05:22:47.772Z,16.93
2022-12-19T05:25:15.707Z,15.60
2022-12-19T05:27:44.884Z,13.13
2022-12-19T05:30:13.692Z,15.67
2022-12-19T05:32:41.547Z,15.23
2022-12-19T05:35:09.406Z,15.13
2022-12-19T05:37:37.439Z,16.30
2022-12-19T05:40:05.861Z,17.03
2022-12-19T05:42:33.696Z,18.67
2022-12-19T05:45:03.273Z,17.47
2022-12-19T05:47:31.110Z,18.90
2022-12-19T05:49:59.343Z,18.50
2022-12-19T05:52:27.615Z,24.67
2022-12-19T05:54:55.449Z,18.87
2022-12-19T05:57:23.320Z,19.20
2022-12-19T05:59:51.376Z,23.40
2022-12-19T06:02:21.597Z,20.30
2022-12-19T06:04:49.500Z,21.30
2022-12-19T06:07:20.910Z,18.90
2022-12-19T06:09:49.226Z,20.90
2022-12-19T06:12:17.130Z,22.07
2022-12-19T06:14:45.172Z,24.93
2022-12-19T06:17:12.999Z,24.00
2022-12-19T06:19:42.195Z,19.47
2022-12-19T06:22:10.171Z,24.83
2022-12-19T06:24:38.022Z,22.07
2022-12-19T06:27:06.031Z,31.07
2022-12-19T06:29:34.032Z,20.47
2022-12-19T06:32:01.947Z,25.13
2022-12-19T06:35:02.232Z,26.90
2022-12-19T06:37:19.248Z,24.27
2022-12-19T06:39:47.151Z,26.67
2022-12-19T06:42:25.947Z,24.70
2022-12-19T06:44:56.175Z,29.40
2022-12-19T06:47:25.170Z,26.43
2022-12-19T06:49:53.180Z,25.60
2022-12-19T06:52:22.465Z,27.23
2022-12-19T06:54:50.268Z,26.53
2022-12-19T06:57:18.210Z,27.00
2022-12-19T06:59:46.164Z,29.87
2022-12-19T07:02:28.504Z,27.13
2022-12-19T07:05:02.240Z,30.23
2022-12-19T07:07:31.891Z,27.33
2022-12-19T07:10:00.390Z,27.30
2022-12-19T07:12:28.381Z,26.57
2022-12-19T07:14:56.387Z,25.70
2022-12-19T07:17:25.486Z,31.40
2022-12-19T07:19:55.695Z,28.30
2022-12-19T07:22:24.488Z,26.77
2022-12-19T07:24:55.391Z,27.23
2022-12-19T07:27:23.739Z,26.93
2022-12-19T07:29:51.760Z,26.93
2022-12-19T07:32:19.752Z,28.00
2022-12-19T07:34:47.605Z,25.10
2022-12-19T07:37:15.553Z,27.93
2022-12-19T07:39:43.518Z,30.03
2022-12-19T07:42:12.751Z,25.90
2022-12-19T07:44:40.734Z,26.20
2022-12-19T07:47:08.683Z,27.63
2022-12-19T07:49:36.522Z,26.53
2022-12-19T07:52:05.467Z,25.73
2022-12-19T07:54:33.549Z,27.17
2022-12-19T07:57:02.227Z,22.33
2022-12-19T07:59:38.688Z,23.33
2022-12-19T08:02:08.090Z,22.90
2022-12-19T08:04:36.192Z,25.90
2022-12-19T08:07:04.055Z,24.23
2022-12-19T08:09:34.662Z,22.93
2022-12-19T08:12:02.572Z,23.37
2022-12-19T08:14:31.752Z,20.00
2022-12-19T08:19:47.671Z,18.47
2022-12-19T08:22:15.723Z,17.60
2022-12-19T08:24:43.845Z,16.20
2022-12-19T08:27:12.010Z,17.03
2022-12-19T08:29:41.296Z,17.40
2022-12-19T08:32:09.276Z,13.83
2022-12-19T08:34:37.261Z,12.17
2022-12-19T08:37:05.191Z,12.03
2022-12-19T08:39:33.023Z,13.10
2022-12-19T08:42:01.215Z,13.50
2022-12-19T08:44:29.079Z,15.57
2022-12-19T08:46:58.382Z,10.93
2022-12-19T08:49:26.441Z,10.10
2022-12-19T08:51:54.317Z,10.00
2022-12-19T08:54:22.273Z,9.60
2022-12-19T08:56:50.174Z,9.17
2022-12-19T08:59:25.643Z,11.30
2022-12-19T09:02:02.224Z,7.90
2022-12-19T09:05:57.669Z,9.80
2022-12-19T09:07:18.932Z,7.70
2022-12-19T09:09:46.931Z,7.60
2022-12-19T09:12:16.291Z,8.07
2022-12-19T09:14:45.273Z,9.07
2022-12-19T09:17:14.625Z,9.23
2022-12-19T09:19:47.512Z,5.83
2022-12-19T09:22:16.505Z,6.90
2022-12-19T09:24:44.561Z,8.67
2022-12-19T09:27:14.257Z,9.20
2022-12-19T09:29:46.315Z,8.40
2022-12-19T09:32:15.479Z,9.03
2022-12-19T09:34:43.343Z,10.13
2022-12-19T09:37:16.873Z,7.27
2022-12-19T09:39:46.727Z,11.77
2022-12-19T09:42:47.472Z,12.00
2022-12-19T09:45:46.269Z,9.03
2022-12-19T09:48:24.535Z,11.67
2022-12-19T09:51:09.512Z,13.37
2022-12-19T09:53:46.112Z,14.60
2022-12-19T09:56:23.689Z,15.23
2022-12-19T09:58:59.583Z,16.97
2022-12-19T10:01:33.577Z,15.33
2022-12-19T10:04:10.732Z,17.03
2022-12-19T10:07:16.303Z,15.93
2022-12-19T10:11:54.793Z,15.93
2022-12-19T10:12:45.781Z,16.87
2022-12-19T10:15:24.653Z,17.57
2022-12-19T10:18:06.709Z,15.70
2022-12-19T10:20:39.788Z,15.43
2022-12-19T10:23:19.467Z,17.73
2022-12-19T10:25:53.767Z,15.60
2022-12-19T10:28:37.657Z,17.80
2022-12-19T10:31:21.034Z,17.20
2022-12-19T10:33:57.075Z,15.57
2022-12-19T10:36:56.025Z,17.97
2022-12-19T10:39:21.911Z,19.67
2022-12-19T10:41:55.060Z,18.17
2022-12-19T10:44:24.282Z,22.10
2022-12-19T10:46:54.404Z,19.80
2022-12-19T10:49:24.146Z,16.97
2022-12-19T10:52:00.451Z,17.20
2022-12-19T10:54:39.573Z,16.60
2022-12-19T10:57:20.363Z,18.80
2022-12-19T10:59:56.943Z,21.83
2022-12-19T11:02:35.498Z,21.53
2022-12-19T11:05:04.927Z,23.83
2022-12-19T11:07:34.452Z,19.53
2022-12-19T11:10:24.701Z,20.57
2022-12-19T11:16:46.577Z,21.87
2022-12-19T11:19:46.255Z,20.83
2022-12-19T11:29:27.014Z,23.57
2022-12-19T11:29:30.351Z,24.50
2022-12-19T11:29:42.537Z,21.37
2022-12-19T11:30:41.740Z,23.10
2022-12-19T11:33:20.124Z,31.87
2022-12-19T11:35:50.298Z,26.23
2022-12-19T11:38:22.286Z,22.37
2022-12-19T11:40:54.310Z,21.17
2022-12-19T11:43:45.693Z,21.17
2022-12-19T11:46:24.603Z,23.93
2022-12-19T11:48:56.851Z,20.23
2022-12-19T11:51:32.297Z,22.03
2022-12-19T11:54:08.846Z,23.47
2022-12-19T11:56:38.335Z,19.37
2022-12-19T11:59:16.675Z,19.17
2022-12-19T12:02:13.011Z,23.60
2022-12-19T12:05:22.141Z,23.87
2022-12-19T12:10:00.192Z,20.30
2022-12-19T12:15:45.629Z,18.70
2022-12-19T12:25:29.476Z,19.77
2022-12-19T12:28:53.226Z,20.67
2022-12-19T12:31:31.133Z,25.93
2022-12-19T12:31:49.211Z,23.20
2022-12-19T12:31:58.820Z,17.93
2022-12-19T12:32:00.362Z,21.17
2022-12-19T12:35:17.433Z,19.57
2022-12-19T12:36:56.033Z,18.27
2022-12-19T12:41:16.277Z,22.33
2022-12-19T12:44:08.426Z,17.67
2022-12-19T12:46:40.994Z,21.30
2022-12-19T12:49:25.459Z,21.97
2022-12-19T12:51:53.588Z,19.83
2022-12-19T12:54:22.709Z,19.43
2022-12-19T12:56:51.205Z,18.43
2022-12-19T12:59:25.753Z,23.27
2022-12-19T13:01:56.745Z,23.53
2022-12-19T13:04:36.029Z,19.00
2022-12-19T13:07:28.136Z,19.90
2022-12-19T13:10:18.013Z,22.30
2022-12-19T13:13:01.141Z,19.97
2022-12-19T13:15:48.343Z,18.93
2022-12-19T13:18:32.969Z,22.47
2022-12-19T13:21:02.862Z,18.00
2022-12-19T13:23:49.261Z,25.27
2022-12-19T13:26:46.932Z,19.00
2022-12-19T13:29:35.735Z,21.47
2022-12-19T13:32:14.371Z,19.67
2022-12-19T13:35:06.200Z,21.48
2022-12-19T13:39:59.626Z,20.17
2022-12-19T13:40:35.174Z,20.95
2022-12-19T13:43:30.937Z,20.95
2022-12-19T13:46:01.686Z,21.63
2022-12-19T13:48:35.342Z,19.27
2022-12-19T13:51:06.916Z,25.65
2022-12-19T13:53:34.791Z,25.17
2022-12-19T13:56:04.937Z,23.42
2022-12-19T13:58:37.852Z,23.92
2022-12-19T14:01:21.578Z,23.10
2022-12-19T14:03:54.533Z,24.27
2022-12-19T14:06:26.089Z,21.13
2022-12-19T14:11:06.113Z,24.15
2022-12-19T14:12:26.722Z,25.07
2022-12-19T14:15:13.038Z,21.80
2022-12-19T14:17:41.963Z,22.27
2022-12-19T14:22:02.097Z,22.70
2022-12-19T14:23:07.937Z,22.13
2022-12-19T14:28:21.685Z,21.88
2022-12-19T14:28:39.101Z,18.08
2022-12-19T14:31:13.694Z,25.70
2022-12-19T14:34:04.187Z,25.60
2022-12-19T14:36:35.838Z,24.33
2022-12-19T14:39:24.765Z,19.65
2022-12-19T14:42:11.550Z,20.15
2022-12-19T14:53:34.398Z,25.73
2022-12-19T14:54:13.812Z,22.97
2022-12-19T14:54:20.958Z,23.75
2022-12-19T14:54:28.466Z,21.73
2022-12-19T14:59:02.914Z,21.13
2022-12-19T15:01:35.176Z,19.87
2022-12-19T15:04:53.256Z,22.02
2022-12-19T15:07:09.584Z,20.95
2022-12-19T15:11:07.400Z,21.63
2022-12-19T15:14:48.903Z,17.77
2022-12-19T15:16:01.514Z,18.33
2022-12-19T15:18:39.584Z,22.73
2022-12-19T15:21:10.956Z,24.48
2022-12-19T15:23:39.135Z,23.27
2022-12-19T15:26:14.173Z,21.65
2022-12-19T15:28:43.300Z,21.08
2022-12-19T15:31:26.509Z,21.65
2022-12-19T15:36:42.535Z,19.60
2022-12-19T15:39:10.475Z,21.23
2022-12-19T15:41:39.651Z,24.08
2022-12-19T15:44:14.398Z,20.52
2022-12-19T15:46:48.355Z,25.70
2022-12-19T15:49:18.286Z,17.85
2022-12-19T15:51:46.603Z,20.30
2022-12-19T15:54:47.071Z,22.05
2022-12-19T15:57:04.793Z,22.67
2022-12-19T15:59:38.683Z,23.88
2022-12-19T16:02:17.701Z,24.42
2022-12-19T16:04:47.412Z,19.15
2022-12-19T16:07:17.631Z,21.38
2022-12-19T16:09:45.600Z,21.10
2022-12-19T16:12:18.130Z,22.20
2022-12-19T16:14:48.587Z,29.80
2022-12-19T16:17:22.321Z,26.40
2022-12-19T16:19:51.733Z,22.70
2022-12-19T16:22:22.424Z,26.48
2022-12-19T16:24:51.461Z,21.15
2022-12-19T16:27:24.946Z,19.60
2022-12-19T16:29:54.088Z,21.63
2022-12-19T16:32:24.268Z,22.08
2022-12-19T16:34:53.265Z,20.83
2022-12-19T16:37:22.779Z,22.15
2022-12-19T16:39:52.480Z,23.73
2022-12-19T16:42:21.859Z,25.97
2022-12-19T16:44:49.836Z,19.17
2022-12-19T16:47:19.098Z,21.30
2022-12-19T16:49:47.110Z,24.30
2022-12-19T16:52:15.384Z,18.15
2022-12-19T16:54:43.278Z,22.87
2022-12-19T16:57:20.575Z,23.60
2022-12-19T16:59:51.269Z,25.97
2022-12-19T17:02:43.693Z,22.73
2022-12-19T17:05:23.926Z,25.93
2022-12-19T17:07:52.441Z,26.47
2022-12-19T17:10:26.396Z,26.93
2022-12-19T17:12:55.593Z,24.70
2022-12-19T17:15:29.414Z,26.30
2022-12-19T17:17:59.326Z,29.70
2022-12-19T17:20:29.570Z,28.87
2022-12-19T17:22:57.403Z,23.80
2022-12-19T17:25:28.945Z,26.43
2022-12-19T17:27:57.074Z,28.15
2022-12-19T17:30:26.255Z,27.27
2022-12-19T17:32:56.772Z,27.63
2022-12-19T17:35:28.936Z,25.73
2022-12-19T17:37:58.448Z,26.37
2022-12-19T17:40:28.432Z,24.80
2022-12-19T17:42:57.541Z,29.13
2022-12-19T17:45:30.062Z,27.77
2022-12-19T17:48:02.984Z,26.20
2022-12-19T17:50:34.994Z,28.07
2022-12-19T17:53:02.840Z,24.30
2022-12-19T17:55:32.011Z,28.70
2022-12-19T17:58:00.198Z,30.47
2022-12-19T18:00:31.237Z,24.00
2022-12-19T18:03:02.979Z,27.43
2022-12-19T18:05:35.959Z,27.00
2022-12-19T18:08:04.744Z,29.30
2022-12-19T18:10:33.491Z,28.13
2022-12-19T18:13:01.352Z,30.53
2022-12-19T18:15:30.838Z,26.73
2022-12-19T18:17:58.820Z,27.48
2022-12-19T18:20:31.901Z,26.80
2022-12-19T18:23:01.464Z,32.63
2022-12-19T18:25:31.106Z,25.53
2022-12-19T18:27:59.404Z,34.00
2022-12-19T18:30:27.499Z,28.93
2022-12-19T18:32:58.907Z,30.57
2022-12-19T18:35:32.688Z,31.77
2022-12-19T18:38:02.703Z,28.27
2022-12-19T18:40:31.904Z,31.58
2022-12-19T18:43:00.331Z,26.23
2022-12-19T18:45:34.647Z,31.57
2022-12-19T18:48:08.053Z,29.33
2022-12-19T18:50:36.115Z,31.85
2022-12-19T18:53:04.156Z,28.97
2022-12-19T18:55:32.720Z,29.90
2022-12-19T18:58:00.580Z,29.77
2022-12-19T19:00:30.057Z,30.67
2022-12-19T19:03:00.296Z,29.27
2022-12-19T19:05:31.716Z,28.13
2022-12-19T19:08:06.733Z,30.00
2022-12-19T19:10:34.990Z,31.60
2022-12-19T19:13:09.804Z,33.77
2022-12-19T19:15:41.693Z,35.20
2022-12-19T19:18:09.671Z,29.47
2022-12-19T19:20:41.474Z,29.20
2022-12-19T19:23:12.268Z,31.00
2022-12-19T19:25:40.210Z,25.37
2022-12-19T19:28:08.453Z,36.93
2022-12-19T19:30:38.505Z,32.73
2022-12-19T19:33:12.890Z,31.63
2022-12-19T19:35:45.202Z,33.47
2022-12-19T19:38:14.356Z,27.90
2022-12-19T19:40:43.438Z,32.07
2022-12-19T19:43:11.514Z,30.33
2022-12-19T19:45:43.168Z,36.40
2022-12-19T19:48:11.771Z,31.70
2022-12-19T19:50:39.925Z,32.20
2022-12-19T19:53:11.223Z,33.43
2022-12-19T19:55:39.151Z,32.37
2022-12-19T19:58:07.432Z,33.97
2022-12-19T20:00:35.278Z,34.70
2022-12-19T20:03:07.210Z,34.10
2022-12-19T20:05:37.587Z,34.87
2022-12-19T20:08:05.945Z,32.77
2022-12-19T20:10:35.131Z,36.80
2022-12-19T20:13:03.172Z,31.33
2022-12-19T20:15:31.363Z,38.83
2022-12-19T20:17:59.751Z,38.57
2022-12-19T20:20:27.683Z,30.90
2022-12-19T20:22:55.908Z,36.37
2022-12-19T20:25:23.740Z,34.87
2022-12-19T20:27:53.065Z,36.73
2022-12-19T20:30:21.109Z,35.93
2022-12-19T20:32:48.945Z,30.37
2022-12-19T20:35:17.385Z,30.60
2022-12-19T20:37:45.488Z,32.17
2022-12-19T20:40:16.503Z,33.70
2022-12-19T20:42:44.827Z,30.30
2022-12-19T20:45:14.250Z,34.77
2022-12-19T20:47:42.108Z,35.67
2022-12-19T20:50:12.911Z,31.00
2022-12-19T20:52:40.891Z,28.40
2022-12-19T20:55:10.778Z,30.50
2022-12-19T20:57:38.737Z,31.17
2022-12-19T21:00:10.261Z,30.50
2022-12-19T21:03:16.907Z,33.37
2022-12-19T21:05:27.970Z,32.70
2022-12-19T21:07:55.855Z,30.03
2022-12-19T21:10:23.653Z,33.00
2022-12-19T21:12:51.650Z,26.33
2022-12-19T21:15:19.581Z,29.43
2022-12-19T21:17:48.806Z,30.90
2022-12-19T21:20:16.858Z,26.45
2022-12-19T21:22:44.763Z,28.87
2022-12-19T21:25:12.558Z,24.00
2022-12-19T21:27:40.479Z,27.85
2022-12-19T21:30:09.859Z,27.93
2022-12-19T21:32:37.707Z,27.73
2022-12-19T21:35:07.472Z,25.70
2022-12-19T21:37:39.893Z,30.77
2022-12-19T21:40:12.043Z,29.50
2022-12-19T21:42:40.072Z,30.73
2022-12-19T21:45:08.975Z,29.73
2022-12-19T21:47:39.352Z,30.65
2022-12-19T21:50:12.443Z,30.92
2022-12-19T21:52:41.114Z,35.10
2022-12-19T21:55:10.566Z,31.02
2022-12-19T21:57:40.097Z,30.70
2022-12-19T22:00:09.748Z,32.83
2022-12-19T22:02:37.861Z,31.47
2022-12-19T22:05:07.157Z,32.75
2022-12-19T22:07:36.493Z,30.73
2022-12-19T22:10:04.589Z,29.75
2022-12-19T22:12:32.491Z,32.80
2022-12-19T22:15:00.404Z,31.80
2022-12-19T22:17:28.322Z,34.33
2022-12-19T22:19:56.211Z,33.20
2022-12-19T22:22:24.109Z,39.47
2022-12-19T22:24:53.299Z,32.50
2022-12-19T22:27:21.229Z,31.23
2022-12-19T22:29:49.218Z,32.87
2022-12-19T22:32:17.782Z,32.05
2022-12-19T22:34:48.919Z,32.15
2022-12-19T22:37:17.011Z,27.88
2022-12-19T22:39:44.835Z,27.80
2022-12-19T22:42:14.138Z,30.38
2022-12-19T22:44:42.089Z,27.73
2022-12-19T22:47:10.742Z,29.80
2022-12-19T22:49:38.759Z,27.08
2022-12-19T22:52:06.958Z,32.50
2022-12-19T22:54:34.759Z,27.77
2022-12-19T22:57:02.700Z,25.27
2022-12-19T22:59:32.031Z,28.23
2022-12-19T23:02:00.181Z,26.30
2022-12-19T23:04:28.363Z,26.17
2022-12-19T23:06:56.311Z,27.00
2022-12-19T23:09:24.156Z,25.43
2022-12-19T23:11:52.093Z,24.42
2022-12-19T23:14:21.284Z,22.90
2022-12-19T23:16:50.818Z,25.23
2022-12-19T23:19:19.666Z,25.45
2022-12-19T23:21:49.870Z,25.70
2022-12-19T23:24:17.807Z,25.45
2022-12-19T23:26:46.023Z,24.80
2022-12-19T23:29:15.861Z,26.63
2022-12-19T23:31:45.545Z,27.00
2022-12-19T23:34:15.405Z,25.40
2022-12-19T23:37:10.165Z,24.73
2022-12-19T23:39:31.410Z,26.43
2022-12-19T23:41:59.355Z,25.67
2022-12-19T23:44:27.488Z,27.92
2022-12-19T23:47:02.667Z,29.48
2022-12-19T23:49:33.517Z,27.37
2022-12-19T23:52:01.748Z,26.93
2022-12-19T23:54:29.607Z,28.57
2022-12-19T23:56:57.452Z,28.30
2022-12-19T23:59:25.512Z,25.33
